sensor_id;sensor_type;location;lat;lon;timestamp;P1;durP1;ratioP1;P2;durP2;ratioP2
67514;SDS011;60646;55.802;37.032;2022-07-18T00:00:15;1.70;;;1.20;;
67514;SDS011;60646;55.802;37.032;2022-07-18T00:02:41;2.45;;;1.10;;
67514;SDS011;60646;55.802;37.032;2022-07-18T00:05:06;1.35;;;0.90;;
67514;SDS011;60646;55.802;37.032;2022-07-18T00:07:32;1.58;;;1.20;;
67514;SDS011;60646;55.802;37.032;2022-07-18T00:09:58;3.30;;;1.05;;
67514;SDS011;60646;55.802;37.032;2022-07-18T00:12:24;2.55;;;0.90;;
67514;SDS011;60646;55.802;37.032;2022-07-18T00:14:50;2.03;;;0.82;;
67514;SDS011;60646;55.802;37.032;2022-07-18T00:17:16;1.83;;;1.13;;
67514;SDS011;60646;55.802;37.032;2022-07-18T00:19:42;1.23;;;0.80;;
67514;SDS011;60646;55.802;37.032;2022-07-18T00:22:08;1.15;;;0.90;;
67514;SDS011;60646;55.802;37.032;2022-07-18T00:24:34;1.98;;;0.90;;
67514;SDS011;60646;55.802;37.032;2022-07-18T00:27:00;1.08;;;0.85;;
67514;SDS011;60646;55.802;37.032;2022-07-18T00:29:26;1.70;;;1.10;;
67514;SDS011;60646;55.802;37.032;2022-07-18T00:31:52;1.20;;;0.98;;
67514;SDS011;60646;55.802;37.032;2022-07-18T00:34:18;1.00;;;0.90;;
67514;SDS011;60646;55.802;37.032;2022-07-18T00:36:43;1.73;;;0.80;;
67514;SDS011;60646;55.802;37.032;2022-07-18T00:39:09;1.00;;;0.82;;
67514;SDS011;60646;55.802;37.032;2022-07-18T00:41:35;1.55;;;0.90;;
67514;SDS011;60646;55.802;37.032;2022-07-18T00:44:01;3.13;;;1.10;;
67514;SDS011;60646;55.802;37.032;2022-07-18T00:46:28;1.25;;;0.80;;
67514;SDS011;60646;55.802;37.032;2022-07-18T00:48:54;2.08;;;1.10;;
67514;SDS011;60646;55.802;37.032;2022-07-18T00:51:20;2.88;;;0.75;;
67514;SDS011;60646;55.802;37.032;2022-07-18T00:53:47;0.93;;;0.82;;
67514;SDS011;60646;55.802;37.032;2022-07-18T00:56:18;1.60;;;0.70;;
67514;SDS011;60646;55.802;37.032;2022-07-18T00:58:45;0.85;;;0.85;;
67514;SDS011;60646;55.802;37.032;2022-07-18T01:01:11;1.20;;;0.90;;
67514;SDS011;60646;55.802;37.032;2022-07-18T01:03:56;1.98;;;0.85;;
67514;SDS011;60646;55.802;37.032;2022-07-18T01:06:22;1.25;;;0.90;;
67514;SDS011;60646;55.802;37.032;2022-07-18T01:08:48;1.45;;;0.90;;
67514;SDS011;60646;55.802;37.032;2022-07-18T01:11:14;1.38;;;1.00;;
67514;SDS011;60646;55.802;37.032;2022-07-18T01:13:40;0.85;;;0.70;;
67514;SDS011;60646;55.802;37.032;2022-07-18T01:16:06;0.88;;;0.70;;
67514;SDS011;60646;55.802;37.032;2022-07-18T01:18:32;1.48;;;1.00;;
67514;SDS011;60646;55.802;37.032;2022-07-18T01:20:58;2.35;;;0.80;;
67514;SDS011;60646;55.802;37.032;2022-07-18T01:23:23;1.00;;;0.68;;
67514;SDS011;60646;55.802;37.032;2022-07-18T01:25:49;1.33;;;0.80;;
67514;SDS011;60646;55.802;37.032;2022-07-18T01:28:16;1.20;;;0.93;;
67514;SDS011;60646;55.802;37.032;2022-07-18T01:30:41;1.80;;;1.02;;
67514;SDS011;60646;55.802;37.032;2022-07-18T01:33:07;2.50;;;1.02;;
67514;SDS011;60646;55.802;37.032;2022-07-18T01:35:33;1.15;;;0.90;;
67514;SDS011;60646;55.802;37.032;2022-07-18T01:37:59;2.50;;;0.98;;
67514;SDS011;60646;55.802;37.032;2022-07-18T01:40:26;2.28;;;1.10;;
67514;SDS011;60646;55.802;37.032;2022-07-18T01:42:52;1.30;;;1.00;;
67514;SDS011;60646;55.802;37.032;2022-07-18T01:45:18;1.20;;;0.90;;
67514;SDS011;60646;55.802;37.032;2022-07-18T01:47:45;2.35;;;1.05;;
67514;SDS011;60646;55.802;37.032;2022-07-18T01:50:12;1.77;;;0.90;;
67514;SDS011;60646;55.802;37.032;2022-07-18T01:52:38;1.30;;;0.90;;
67514;SDS011;60646;55.802;37.032;2022-07-18T01:55:05;2.22;;;1.05;;
67514;SDS011;60646;55.802;37.032;2022-07-18T01:57:32;1.17;;;1.00;;
67514;SDS011;60646;55.802;37.032;2022-07-18T02:00:00;1.30;;;1.17;;
67514;SDS011;60646;55.802;37.032;2022-07-18T02:02:26;1.83;;;1.10;;
67514;SDS011;60646;55.802;37.032;2022-07-18T02:04:52;1.50;;;0.93;;
67514;SDS011;60646;55.802;37.032;2022-07-18T02:07:30;1.77;;;1.17;;
67514;SDS011;60646;55.802;37.032;2022-07-18T02:09:58;1.33;;;1.00;;
67514;SDS011;60646;55.802;37.032;2022-07-18T02:12:24;1.70;;;0.90;;
67514;SDS011;60646;55.802;37.032;2022-07-18T02:14:50;1.50;;;1.08;;
67514;SDS011;60646;55.802;37.032;2022-07-18T02:17:17;1.20;;;0.93;;
67514;SDS011;60646;55.802;37.032;2022-07-18T02:19:44;1.30;;;0.98;;
67514;SDS011;60646;55.802;37.032;2022-07-18T02:22:10;1.30;;;1.05;;
67514;SDS011;60646;55.802;37.032;2022-07-18T02:24:36;1.50;;;0.93;;
67514;SDS011;60646;55.802;37.032;2022-07-18T02:27:02;1.25;;;1.02;;
67514;SDS011;60646;55.802;37.032;2022-07-18T02:29:28;1.38;;;1.08;;
67514;SDS011;60646;55.802;37.032;2022-07-18T02:31:54;1.50;;;0.98;;
67514;SDS011;60646;55.802;37.032;2022-07-18T02:34:20;1.20;;;0.90;;
67514;SDS011;60646;55.802;37.032;2022-07-18T02:36:46;1.27;;;0.95;;
67514;SDS011;60646;55.802;37.032;2022-07-18T02:39:12;2.90;;;1.00;;
67514;SDS011;60646;55.802;37.032;2022-07-18T02:41:39;1.70;;;0.90;;
67514;SDS011;60646;55.802;37.032;2022-07-18T02:44:05;2.45;;;1.00;;
67514;SDS011;60646;55.802;37.032;2022-07-18T02:46:31;1.00;;;0.70;;
67514;SDS011;60646;55.802;37.032;2022-07-18T02:48:56;2.30;;;1.30;;
67514;SDS011;60646;55.802;37.032;2022-07-18T02:51:22;1.70;;;0.98;;
67514;SDS011;60646;55.802;37.032;2022-07-18T02:53:48;2.80;;;1.10;;
67514;SDS011;60646;55.802;37.032;2022-07-18T02:56:13;1.35;;;0.98;;
67514;SDS011;60646;55.802;37.032;2022-07-18T02:58:39;2.63;;;1.13;;
67514;SDS011;60646;55.802;37.032;2022-07-18T03:01:05;1.38;;;0.98;;
67514;SDS011;60646;55.802;37.032;2022-07-18T03:03:31;6.13;;;1.42;;
67514;SDS011;60646;55.802;37.032;2022-07-18T03:05:56;1.05;;;0.90;;
67514;SDS011;60646;55.802;37.032;2022-07-18T03:08:22;1.15;;;0.82;;
67514;SDS011;60646;55.802;37.032;2022-07-18T03:10:48;0.85;;;0.82;;
67514;SDS011;60646;55.802;37.032;2022-07-18T03:13:14;2.53;;;1.02;;
67514;SDS011;60646;55.802;37.032;2022-07-18T03:15:39;1.98;;;1.20;;
67514;SDS011;60646;55.802;37.032;2022-07-18T03:18:06;1.35;;;0.88;;
67514;SDS011;60646;55.802;37.032;2022-07-18T03:20:31;1.67;;;0.95;;
67514;SDS011;60646;55.802;37.032;2022-07-18T03:22:57;1.45;;;0.90;;
67514;SDS011;60646;55.802;37.032;2022-07-18T03:25:23;1.17;;;0.63;;
67514;SDS011;60646;55.802;37.032;2022-07-18T03:27:51;1.23;;;0.80;;
67514;SDS011;60646;55.802;37.032;2022-07-18T03:30:17;1.35;;;0.80;;
67514;SDS011;60646;55.802;37.032;2022-07-18T03:32:42;1.30;;;0.85;;
67514;SDS011;60646;55.802;37.032;2022-07-18T03:35:08;2.05;;;1.13;;
67514;SDS011;60646;55.802;37.032;2022-07-18T03:37:34;1.95;;;0.80;;
67514;SDS011;60646;55.802;37.032;2022-07-18T03:40:00;2.08;;;0.80;;
67514;SDS011;60646;55.802;37.032;2022-07-18T03:42:26;1.88;;;1.00;;
67514;SDS011;60646;55.802;37.032;2022-07-18T03:44:52;1.05;;;0.85;;
67514;SDS011;60646;55.802;37.032;2022-07-18T03:47:17;1.65;;;0.82;;
67514;SDS011;60646;55.802;37.032;2022-07-18T03:49:43;2.33;;;0.77;;
67514;SDS011;60646;55.802;37.032;2022-07-18T03:52:09;0.90;;;0.80;;
67514;SDS011;60646;55.802;37.032;2022-07-18T03:54:34;1.65;;;0.75;;
67514;SDS011;60646;55.802;37.032;2022-07-18T03:57:00;2.08;;;0.80;;
67514;SDS011;60646;55.802;37.032;2022-07-18T03:59:26;1.77;;;0.90;;
67514;SDS011;60646;55.802;37.032;2022-07-18T04:01:52;1.50;;;1.00;;
67514;SDS011;60646;55.802;37.032;2022-07-18T04:04:17;2.80;;;1.20;;
67514;SDS011;60646;55.802;37.032;2022-07-18T04:06:43;1.35;;;0.80;;
67514;SDS011;60646;55.802;37.032;2022-07-18T04:09:09;1.83;;;1.00;;
67514;SDS011;60646;55.802;37.032;2022-07-18T04:11:35;2.63;;;1.05;;
67514;SDS011;60646;55.802;37.032;2022-07-18T04:14:00;0.90;;;0.70;;
67514;SDS011;60646;55.802;37.032;2022-07-18T04:16:26;1.63;;;0.80;;
67514;SDS011;60646;55.802;37.032;2022-07-18T04:18:52;1.58;;;0.90;;
67514;SDS011;60646;55.802;37.032;2022-07-18T04:21:17;1.08;;;0.60;;
67514;SDS011;60646;55.802;37.032;2022-07-18T04:23:43;0.93;;;0.70;;
67514;SDS011;60646;55.802;37.032;2022-07-18T04:29:41;1.25;;;0.80;;
67514;SDS011;60646;55.802;37.032;2022-07-18T04:32:07;1.65;;;0.75;;
67514;SDS011;60646;55.802;37.032;2022-07-18T04:34:33;1.40;;;0.93;;
67514;SDS011;60646;55.802;37.032;2022-07-18T04:36:58;1.08;;;0.75;;
67514;SDS011;60646;55.802;37.032;2022-07-18T04:39:24;1.05;;;0.90;;
67514;SDS011;60646;55.802;37.032;2022-07-18T04:41:50;0.73;;;0.70;;
67514;SDS011;60646;55.802;37.032;2022-07-18T04:44:16;1.25;;;0.80;;
67514;SDS011;60646;55.802;37.032;2022-07-18T04:46:41;1.95;;;1.15;;
67514;SDS011;60646;55.802;37.032;2022-07-18T04:49:07;1.80;;;0.90;;
67514;SDS011;60646;55.802;37.032;2022-07-18T04:51:33;1.20;;;0.90;;
67514;SDS011;60646;55.802;37.032;2022-07-18T04:53:58;1.25;;;0.90;;
67514;SDS011;60646;55.802;37.032;2022-07-18T04:56:24;1.02;;;0.80;;
67514;SDS011;60646;55.802;37.032;2022-07-18T04:58:50;1.42;;;0.85;;
67514;SDS011;60646;55.802;37.032;2022-07-18T05:01:16;1.80;;;0.75;;
67514;SDS011;60646;55.802;37.032;2022-07-18T05:03:41;1.88;;;1.00;;
67514;SDS011;60646;55.802;37.032;2022-07-18T05:06:07;3.22;;;0.90;;
67514;SDS011;60646;55.802;37.032;2022-07-18T05:08:37;2.80;;;1.30;;
67514;SDS011;60646;55.802;37.032;2022-07-18T05:11:02;1.70;;;1.10;;
67514;SDS011;60646;55.802;37.032;2022-07-18T05:13:28;1.33;;;0.80;;
67514;SDS011;60646;55.802;37.032;2022-07-18T05:15:54;1.20;;;0.90;;
67514;SDS011;60646;55.802;37.032;2022-07-18T05:18:19;2.97;;;0.93;;
67514;SDS011;60646;55.802;37.032;2022-07-18T05:23:37;1.90;;;0.80;;
67514;SDS011;60646;55.802;37.032;2022-07-18T05:26:03;1.13;;;0.98;;
67514;SDS011;60646;55.802;37.032;2022-07-18T05:28:29;1.55;;;1.00;;
67514;SDS011;60646;55.802;37.032;2022-07-18T05:30:55;1.48;;;1.00;;
67514;SDS011;60646;55.802;37.032;2022-07-18T05:33:22;5.32;;;1.58;;
67514;SDS011;60646;55.802;37.032;2022-07-18T05:35:47;2.92;;;0.90;;
67514;SDS011;60646;55.802;37.032;2022-07-18T05:38:13;2.00;;;1.30;;
67514;SDS011;60646;55.802;37.032;2022-07-18T05:40:39;0.98;;;0.88;;
67514;SDS011;60646;55.802;37.032;2022-07-18T05:43:04;5.53;;;1.10;;
67514;SDS011;60646;55.802;37.032;2022-07-18T05:45:30;0.75;;;0.70;;
67514;SDS011;60646;55.802;37.032;2022-07-18T05:47:56;1.52;;;0.90;;
67514;SDS011;60646;55.802;37.032;2022-07-18T05:50:23;2.00;;;0.90;;
67514;SDS011;60646;55.802;37.032;2022-07-18T05:52:50;1.40;;;0.95;;
67514;SDS011;60646;55.802;37.032;2022-07-18T05:55:16;1.08;;;0.93;;
67514;SDS011;60646;55.802;37.032;2022-07-18T05:57:41;1.17;;;1.08;;
67514;SDS011;60646;55.802;37.032;2022-07-18T06:00:08;2.95;;;1.02;;
67514;SDS011;60646;55.802;37.032;2022-07-18T06:02:35;3.50;;;1.25;;
67514;SDS011;60646;55.802;37.032;2022-07-18T06:05:02;2.58;;;1.05;;
67514;SDS011;60646;55.802;37.032;2022-07-18T06:07:29;1.13;;;0.85;;
67514;SDS011;60646;55.802;37.032;2022-07-18T06:09:54;1.27;;;0.98;;
67514;SDS011;60646;55.802;37.032;2022-07-18T06:12:20;1.40;;;1.00;;
67514;SDS011;60646;55.802;37.032;2022-07-18T06:14:46;1.80;;;1.27;;
67514;SDS011;60646;55.802;37.032;2022-07-18T06:17:12;2.40;;;0.90;;
67514;SDS011;60646;55.802;37.032;2022-07-18T06:19:38;1.42;;;0.88;;
67514;SDS011;60646;55.802;37.032;2022-07-18T06:22:04;1.83;;;1.00;;
67514;SDS011;60646;55.802;37.032;2022-07-18T06:24:30;1.10;;;0.70;;
67514;SDS011;60646;55.802;37.032;2022-07-18T06:26:56;2.67;;;0.90;;
67514;SDS011;60646;55.802;37.032;2022-07-18T06:29:22;1.65;;;1.17;;
67514;SDS011;60646;55.802;37.032;2022-07-18T06:31:47;4.05;;;0.88;;
67514;SDS011;60646;55.802;37.032;2022-07-18T06:34:13;2.22;;;1.13;;
67514;SDS011;60646;55.802;37.032;2022-07-18T06:36:39;6.88;;;0.98;;
67514;SDS011;60646;55.802;37.032;2022-07-18T06:39:04;2.33;;;1.00;;
67514;SDS011;60646;55.802;37.032;2022-07-18T06:41:36;3.80;;;1.17;;
67514;SDS011;60646;55.802;37.032;2022-07-18T06:44:11;4.05;;;0.98;;
67514;SDS011;60646;55.802;37.032;2022-07-18T06:46:37;1.75;;;1.10;;
67514;SDS011;60646;55.802;37.032;2022-07-18T06:49:03;1.98;;;0.73;;
67514;SDS011;60646;55.802;37.032;2022-07-18T06:51:30;1.58;;;1.08;;
67514;SDS011;60646;55.802;37.032;2022-07-18T06:53:56;2.53;;;0.90;;
67514;SDS011;60646;55.802;37.032;2022-07-18T06:56:23;3.20;;;0.90;;
67514;SDS011;60646;55.802;37.032;2022-07-18T06:58:49;1.27;;;0.90;;
67514;SDS011;60646;55.802;37.032;2022-07-18T07:01:16;0.90;;;0.80;;
67514;SDS011;60646;55.802;37.032;2022-07-18T07:03:42;4.43;;;0.98;;
67514;SDS011;60646;55.802;37.032;2022-07-18T07:06:08;2.67;;;1.00;;
67514;SDS011;60646;55.802;37.032;2022-07-18T07:08:34;2.53;;;1.10;;
67514;SDS011;60646;55.802;37.032;2022-07-18T07:11:01;2.40;;;0.93;;
67514;SDS011;60646;55.802;37.032;2022-07-18T07:13:27;1.77;;;0.73;;
67514;SDS011;60646;55.802;37.032;2022-07-18T07:15:53;1.58;;;0.85;;
67514;SDS011;60646;55.802;37.032;2022-07-18T07:18:19;1.40;;;0.85;;
67514;SDS011;60646;55.802;37.032;2022-07-18T07:20:45;4.55;;;1.00;;
67514;SDS011;60646;55.802;37.032;2022-07-18T07:23:12;2.63;;;0.90;;
67514;SDS011;60646;55.802;37.032;2022-07-18T07:25:38;0.80;;;0.70;;
67514;SDS011;60646;55.802;37.032;2022-07-18T07:28:04;1.10;;;0.90;;
67514;SDS011;60646;55.802;37.032;2022-07-18T07:30:31;2.65;;;0.93;;
67514;SDS011;60646;55.802;37.032;2022-07-18T07:32:58;3.20;;;1.15;;
67514;SDS011;60646;55.802;37.032;2022-07-18T07:35:24;1.35;;;0.90;;
67514;SDS011;60646;55.802;37.032;2022-07-18T07:37:50;1.30;;;0.90;;
67514;SDS011;60646;55.802;37.032;2022-07-18T07:40:18;3.78;;;1.27;;
67514;SDS011;60646;55.802;37.032;2022-07-18T07:42:44;1.50;;;0.95;;
67514;SDS011;60646;55.802;37.032;2022-07-18T07:45:11;1.88;;;1.30;;
67514;SDS011;60646;55.802;37.032;2022-07-18T07:47:39;1.77;;;1.00;;
67514;SDS011;60646;55.802;37.032;2022-07-18T07:50:05;1.33;;;0.90;;
67514;SDS011;60646;55.802;37.032;2022-07-18T07:52:32;1.50;;;1.02;;
67514;SDS011;60646;55.802;37.032;2022-07-18T07:54:58;1.20;;;0.82;;
67514;SDS011;60646;55.802;37.032;2022-07-18T07:57:24;1.05;;;0.90;;
67514;SDS011;60646;55.802;37.032;2022-07-18T07:59:51;2.63;;;1.30;;
67514;SDS011;60646;55.802;37.032;2022-07-18T08:02:17;2.88;;;1.00;;
67514;SDS011;60646;55.802;37.032;2022-07-18T08:04:43;1.73;;;1.10;;
67514;SDS011;60646;55.802;37.032;2022-07-18T12:58:28;2.50;;;1.25;;
67514;SDS011;60646;55.802;37.032;2022-07-18T13:00:54;3.85;;;1.30;;
67514;SDS011;60646;55.802;37.032;2022-07-18T13:03:23;1.55;;;0.90;;
67514;SDS011;60646;55.802;37.032;2022-07-18T13:05:48;1.88;;;0.75;;
67514;SDS011;60646;55.802;37.032;2022-07-18T13:08:14;0.80;;;0.70;;
67514;SDS011;60646;55.802;37.032;2022-07-18T13:10:41;2.63;;;0.82;;
67514;SDS011;60646;55.802;37.032;2022-07-18T13:13:07;2.40;;;0.88;;
67514;SDS011;60646;55.802;37.032;2022-07-18T13:15:34;1.60;;;0.88;;
67514;SDS011;60646;55.802;37.032;2022-07-18T13:18:01;1.33;;;0.88;;
67514;SDS011;60646;55.802;37.032;2022-07-18T13:20:27;1.52;;;0.88;;
67514;SDS011;60646;55.802;37.032;2022-07-18T13:22:55;3.03;;;0.82;;
67514;SDS011;60646;55.802;37.032;2022-07-18T13:25:22;1.40;;;1.00;;
67514;SDS011;60646;55.802;37.032;2022-07-18T13:27:48;2.15;;;0.98;;
67514;SDS011;60646;55.802;37.032;2022-07-18T13:30:14;1.90;;;1.17;;
67514;SDS011;60646;55.802;37.032;2022-07-18T13:32:40;2.50;;;1.27;;
67514;SDS011;60646;55.802;37.032;2022-07-18T13:35:10;3.25;;;1.83;;
67514;SDS011;60646;55.802;37.032;2022-07-18T13:37:36;3.35;;;1.50;;
67514;SDS011;60646;55.802;37.032;2022-07-18T13:40:01;2.33;;;1.30;;
67514;SDS011;60646;55.802;37.032;2022-07-18T13:42:28;5.15;;;1.50;;
67514;SDS011;60646;55.802;37.032;2022-07-18T13:44:54;4.38;;;1.40;;
67514;SDS011;60646;55.802;37.032;2022-07-18T13:47:20;2.53;;;1.25;;
67514;SDS011;60646;55.802;37.032;2022-07-18T13:49:45;2.05;;;1.30;;
67514;SDS011;60646;55.802;37.032;2022-07-18T13:52:12;6.00;;;1.30;;
67514;SDS011;60646;55.802;37.032;2022-07-18T13:54:38;1.85;;;1.10;;
67514;SDS011;60646;55.802;37.032;2022-07-18T13:57:22;1.55;;;1.00;;
67514;SDS011;60646;55.802;37.032;2022-07-18T13:59:47;2.22;;;1.30;;
67514;SDS011;60646;55.802;37.032;2022-07-18T14:02:13;2.53;;;0.93;;
67514;SDS011;60646;55.802;37.032;2022-07-18T14:04:39;1.10;;;1.00;;
67514;SDS011;60646;55.802;37.032;2022-07-18T14:07:05;1.92;;;1.13;;
67514;SDS011;60646;55.802;37.032;2022-07-18T14:09:50;2.13;;;1.35;;
67514;SDS011;60646;55.802;37.032;2022-07-18T14:12:16;1.70;;;1.17;;
67514;SDS011;60646;55.802;37.032;2022-07-18T14:14:42;4.43;;;1.10;;
67514;SDS011;60646;55.802;37.032;2022-07-18T14:17:07;1.40;;;0.80;;
67514;SDS011;60646;55.802;37.032;2022-07-18T14:19:33;1.05;;;0.77;;
67514;SDS011;60646;55.802;37.032;2022-07-18T14:22:02;3.22;;;1.83;;
67514;SDS011;60646;55.802;37.032;2022-07-18T14:24:28;3.83;;;2.00;;
67514;SDS011;60646;55.802;37.032;2022-07-18T14:26:54;3.70;;;2.10;;
67514;SDS011;60646;55.802;37.032;2022-07-18T14:29:20;9.13;;;5.75;;
67514;SDS011;60646;55.802;37.032;2022-07-18T14:31:46;2.80;;;1.95;;
67514;SDS011;60646;55.802;37.032;2022-07-18T14:34:11;2.65;;;1.35;;
67514;SDS011;60646;55.802;37.032;2022-07-18T14:36:37;3.60;;;1.90;;
67514;SDS011;60646;55.802;37.032;2022-07-18T14:39:03;11.18;;;6.97;;
67514;SDS011;60646;55.802;37.032;2022-07-18T14:41:28;16.60;;;9.63;;
67514;SDS011;60646;55.802;37.032;2022-07-18T14:43:55;7.90;;;4.35;;
67514;SDS011;60646;55.802;37.032;2022-07-18T14:46:21;17.60;;;7.72;;
67514;SDS011;60646;55.802;37.032;2022-07-18T14:48:47;6.93;;;3.13;;
67514;SDS011;60646;55.802;37.032;2022-07-18T14:51:17;3.60;;;1.50;;
67514;SDS011;60646;55.802;37.032;2022-07-18T14:53:43;2.90;;;1.10;;
67514;SDS011;60646;55.802;37.032;2022-07-18T14:56:09;1.00;;;0.82;;
67514;SDS011;60646;55.802;37.032;2022-07-18T14:58:34;1.23;;;0.80;;
67514;SDS011;60646;55.802;37.032;2022-07-18T15:01:19;1.40;;;0.80;;
67514;SDS011;60646;55.802;37.032;2022-07-18T15:03:45;1.15;;;0.68;;
67514;SDS011;60646;55.802;37.032;2022-07-18T15:06:11;3.33;;;2.08;;
67514;SDS011;60646;55.802;37.032;2022-07-18T15:08:37;7.05;;;3.67;;
67514;SDS011;60646;55.802;37.032;2022-07-18T15:11:03;3.33;;;1.90;;
67514;SDS011;60646;55.802;37.032;2022-07-18T15:13:47;2.20;;;1.27;;
67514;SDS011;60646;55.802;37.032;2022-07-18T15:16:13;1.73;;;1.23;;
67514;SDS011;60646;55.802;37.032;2022-07-18T15:18:57;2.75;;;1.25;;
67514;SDS011;60646;55.802;37.032;2022-07-18T15:21:23;2.15;;;0.82;;
67514;SDS011;60646;55.802;37.032;2022-07-18T15:23:48;1.55;;;0.70;;
67514;SDS011;60646;55.802;37.032;2022-07-18T15:26:14;2.80;;;0.95;;
67514;SDS011;60646;55.802;37.032;2022-07-18T15:28:40;1.95;;;0.90;;
67514;SDS011;60646;55.802;37.032;2022-07-18T15:31:05;1.45;;;0.70;;
67514;SDS011;60646;55.802;37.032;2022-07-18T15:33:32;1.52;;;0.70;;
67514;SDS011;60646;55.802;37.032;2022-07-18T15:35:58;1.13;;;0.70;;
67514;SDS011;60646;55.802;37.032;2022-07-18T15:38:24;3.30;;;1.20;;
67514;SDS011;60646;55.802;37.032;2022-07-18T15:40:50;2.63;;;1.08;;
67514;SDS011;60646;55.802;37.032;2022-07-18T15:43:16;1.25;;;0.73;;
67514;SDS011;60646;55.802;37.032;2022-07-18T15:45:42;2.65;;;1.05;;
67514;SDS011;60646;55.802;37.032;2022-07-18T15:48:07;1.00;;;0.80;;
67514;SDS011;60646;55.802;37.032;2022-07-18T15:50:34;1.75;;;1.10;;
67514;SDS011;60646;55.802;37.032;2022-07-18T15:53:00;1.05;;;0.70;;
67514;SDS011;60646;55.802;37.032;2022-07-18T15:55:26;1.00;;;0.70;;
67514;SDS011;60646;55.802;37.032;2022-07-18T15:57:52;1.40;;;0.80;;
67514;SDS011;60646;55.802;37.032;2022-07-18T16:00:18;5.35;;;1.15;;
67514;SDS011;60646;55.802;37.032;2022-07-18T16:02:44;1.75;;;0.90;;
67514;SDS011;60646;55.802;37.032;2022-07-18T16:05:10;1.88;;;0.85;;
67514;SDS011;60646;55.802;37.032;2022-07-18T16:07:36;1.20;;;0.90;;
67514;SDS011;60646;55.802;37.032;2022-07-18T16:10:02;7.85;;;3.42;;
67514;SDS011;60646;55.802;37.032;2022-07-18T16:12:28;4.20;;;2.10;;
67514;SDS011;60646;55.802;37.032;2022-07-18T16:14:54;12.18;;;6.20;;
67514;SDS011;60646;55.802;37.032;2022-07-18T16:17:20;16.83;;;6.20;;
67514;SDS011;60646;55.802;37.032;2022-07-18T16:19:46;5.45;;;1.83;;
67514;SDS011;60646;55.802;37.032;2022-07-18T16:22:12;3.67;;;1.30;;
67514;SDS011;60646;55.802;37.032;2022-07-18T16:24:39;2.28;;;1.00;;
67514;SDS011;60646;55.802;37.032;2022-07-18T16:27:05;2.15;;;0.90;;
67514;SDS011;60646;55.802;37.032;2022-07-18T16:29:31;1.55;;;0.60;;
67514;SDS011;60646;55.802;37.032;2022-07-18T16:31:56;1.63;;;0.80;;
67514;SDS011;60646;55.802;37.032;2022-07-18T16:34:22;1.65;;;1.00;;
67514;SDS011;60646;55.802;37.032;2022-07-18T16:37:06;0.70;;;0.60;;
67514;SDS011;60646;55.802;37.032;2022-07-18T16:39:32;1.20;;;0.68;;
67514;SDS011;60646;55.802;37.032;2022-07-18T16:41:58;1.98;;;0.73;;
67514;SDS011;60646;55.802;37.032;2022-07-18T16:44:24;1.80;;;0.80;;
67514;SDS011;60646;55.802;37.032;2022-07-18T16:46:51;0.93;;;0.65;;
67514;SDS011;60646;55.802;37.032;2022-07-18T16:49:17;3.10;;;0.70;;
67514;SDS011;60646;55.802;37.032;2022-07-18T16:51:44;1.02;;;0.50;;
67514;SDS011;60646;55.802;37.032;2022-07-18T16:54:11;0.77;;;0.57;;
67514;SDS011;60646;55.802;37.032;2022-07-18T16:56:37;1.17;;;0.77;;
67514;SDS011;60646;55.802;37.032;2022-07-18T16:59:03;1.80;;;0.70;;
67514;SDS011;60646;55.802;37.032;2022-07-18T17:01:32;1.23;;;0.63;;
67514;SDS011;60646;55.802;37.032;2022-07-18T17:04:00;1.80;;;0.70;;
67514;SDS011;60646;55.802;37.032;2022-07-18T17:06:26;0.93;;;0.70;;
67514;SDS011;60646;55.802;37.032;2022-07-18T17:08:52;0.88;;;0.70;;
67514;SDS011;60646;55.802;37.032;2022-07-18T17:11:19;1.20;;;0.93;;
67514;SDS011;60646;55.802;37.032;2022-07-18T17:13:45;1.58;;;1.30;;
67514;SDS011;60646;55.802;37.032;2022-07-18T17:16:11;2.03;;;1.20;;
67514;SDS011;60646;55.802;37.032;2022-07-18T17:18:56;3.67;;;1.90;;
67514;SDS011;60646;55.802;37.032;2022-07-18T17:21:22;21.42;;;8.80;;
67514;SDS011;60646;55.802;37.032;2022-07-18T17:23:49;11.85;;;4.65;;
67514;SDS011;60646;55.802;37.032;2022-07-18T17:26:16;9.80;;;5.00;;
67514;SDS011;60646;55.802;37.032;2022-07-18T17:28:42;10.05;;;4.75;;
67514;SDS011;60646;55.802;37.032;2022-07-18T17:31:10;7.57;;;4.38;;
67514;SDS011;60646;55.802;37.032;2022-07-18T17:33:36;5.20;;;2.60;;
67514;SDS011;60646;55.802;37.032;2022-07-18T17:36:03;4.88;;;3.00;;
67514;SDS011;60646;55.802;37.032;2022-07-18T17:38:32;2.05;;;1.60;;
67514;SDS011;60646;55.802;37.032;2022-07-18T17:40:59;2.00;;;1.40;;
67514;SDS011;60646;55.802;37.032;2022-07-18T17:43:25;1.35;;;1.00;;
67514;SDS011;60646;55.802;37.032;2022-07-18T17:46:10;3.40;;;1.20;;
67514;SDS011;60646;55.802;37.032;2022-07-18T17:48:37;1.73;;;1.08;;
67514;SDS011;60646;55.802;37.032;2022-07-18T17:51:04;2.72;;;1.60;;
67514;SDS011;60646;55.802;37.032;2022-07-18T17:53:32;1.40;;;0.90;;
67514;SDS011;60646;55.802;37.032;2022-07-18T17:55:58;2.10;;;1.30;;
67514;SDS011;60646;55.802;37.032;2022-07-18T17:58:25;1.75;;;0.98;;
67514;SDS011;60646;55.802;37.032;2022-07-18T18:00:51;1.50;;;1.17;;
67514;SDS011;60646;55.802;37.032;2022-07-18T18:03:18;2.30;;;1.33;;
67514;SDS011;60646;55.802;37.032;2022-07-18T18:05:43;5.60;;;3.40;;
67514;SDS011;60646;55.802;37.032;2022-07-18T18:08:09;3.63;;;2.40;;
67514;SDS011;60646;55.802;37.032;2022-07-18T18:10:35;3.20;;;2.20;;
67514;SDS011;60646;55.802;37.032;2022-07-18T18:13:01;2.53;;;1.55;;
67514;SDS011;60646;55.802;37.032;2022-07-18T18:15:26;1.52;;;1.02;;
67514;SDS011;60646;55.802;37.032;2022-07-18T18:17:52;3.33;;;1.23;;
67514;SDS011;60646;55.802;37.032;2022-07-18T18:20:18;1.90;;;0.95;;
67514;SDS011;60646;55.802;37.032;2022-07-18T18:22:44;1.05;;;0.82;;
67514;SDS011;60646;55.802;37.032;2022-07-18T18:25:10;1.40;;;1.05;;
67514;SDS011;60646;55.802;37.032;2022-07-18T18:27:37;1.17;;;0.90;;
67514;SDS011;60646;55.802;37.032;2022-07-18T18:30:05;1.65;;;1.00;;
67514;SDS011;60646;55.802;37.032;2022-07-18T18:32:31;1.77;;;1.05;;
67514;SDS011;60646;55.802;37.032;2022-07-18T18:34:57;1.50;;;0.90;;
67514;SDS011;60646;55.802;37.032;2022-07-18T18:37:23;2.85;;;1.10;;
67514;SDS011;60646;55.802;37.032;2022-07-18T18:39:49;15.35;;;6.90;;
67514;SDS011;60646;55.802;37.032;2022-07-18T18:42:14;19.23;;;7.05;;
67514;SDS011;60646;55.802;37.032;2022-07-18T18:44:40;20.67;;;6.88;;
67514;SDS011;60646;55.802;37.032;2022-07-18T18:47:06;35.25;;;10.80;;
67514;SDS011;60646;55.802;37.032;2022-07-18T18:49:32;27.45;;;10.00;;
67514;SDS011;60646;55.802;37.032;2022-07-18T18:51:58;16.42;;;6.70;;
67514;SDS011;60646;55.802;37.032;2022-07-18T18:54:25;32.10;;;12.40;;
67514;SDS011;60646;55.802;37.032;2022-07-18T18:56:55;33.58;;;15.25;;
67514;SDS011;60646;55.802;37.032;2022-07-18T18:59:21;18.73;;;9.63;;
67514;SDS011;60646;55.802;37.032;2022-07-18T19:01:47;15.30;;;8.40;;
67514;SDS011;60646;55.802;37.032;2022-07-18T19:04:13;10.25;;;5.82;;
67514;SDS011;60646;55.802;37.032;2022-07-18T19:06:40;8.32;;;4.88;;
67514;SDS011;60646;55.802;37.032;2022-07-18T19:09:06;8.90;;;5.43;;
67514;SDS011;60646;55.802;37.032;2022-07-18T19:11:32;6.35;;;4.25;;
67514;SDS011;60646;55.802;37.032;2022-07-18T19:13:58;3.40;;;2.72;;
67514;SDS011;60646;55.802;37.032;2022-07-18T19:16:24;3.00;;;2.15;;
67514;SDS011;60646;55.802;37.032;2022-07-18T19:18:50;4.43;;;2.00;;
67514;SDS011;60646;55.802;37.032;2022-07-18T19:21:16;2.30;;;1.75;;
67514;SDS011;60646;55.802;37.032;2022-07-18T19:23:43;1.90;;;1.50;;
67514;SDS011;60646;55.802;37.032;2022-07-18T19:26:09;3.78;;;1.63;;